Time;durP1;ratioP1;P1;durP2;ratioP2;P2;SDS_P1;SDS_P2;PMS_P1;PMS_P2;Temp;Humidity;BMP_temperature;BMP_pressure;BME280_temperature;BME280_humidity;BME280_pressure;Samples;Min_cycle;Max_cycle;Signal;HPM_P1;HPM_P2
2021/03/09 00:00:29;;;;;;;7.53;4.70;;;;;;;;;;5028657;28;20369;-89
2021/03/09 00:02:55;;;;;;;7.13;4.90;;;;;;;;;;5030217;28;20373;-81
2021/03/09 00:05:21;;;;;;;7.13;4.90;;;;;;;;;;5030393;28;20377;-89
2021/03/09 00:07:47;;;;;;;6.05;4.25;;;;;;;;;;5027709;28;20479;-86
2021/03/09 00:10:13;;;;;;;5.80;4.28;;;;;;;;;;5029012;28;20382;-85
2021/03/09 00:12:39;;;;;;;6.15;4.80;;;;;;;;;;5029431;28;20397;-85
2021/03/09 00:15:06;;;;;;;5.93;4.18;;;;;;;;;;5029119;28;20855;-87
2021/03/09 00:17:32;;;;;;;6.60;4.47;;;;;;;;;;5028300;28;20385;-90
2021/03/09 00:19:58;;;;;;;6.15;4.70;;;;;;;;;;5028491;28;20453;-85
2021/03/09 00:22:24;;;;;;;7.35;4.47;;;;;;;;;;5028545;28;20465;-89
2021/03/09 00:24:50;;;;;;;7.00;4.80;;;;;;;;;;5030446;28;20400;-86
2021/03/09 00:27:16;;;;;;;5.85;4.60;;;;;;;;;;5032304;28;20397;-87
2021/03/09 00:29:42;;;;;;;5.47;4.32;;;;;;;;;;5032568;28;20407;-87
2021/03/09 00:32:09;;;;;;;6.20;4.63;;;;;;;;;;5032481;28;20476;-86
2021/03/09 00:34:35;;;;;;;6.63;4.90;;;;;;;;;;5033043;28;20377;-85
2021/03/09 00:37:02;;;;;;;6.25;4.80;;;;;;;;;;5031539;28;20413;-91
2021/03/09 00:39:28;;;;;;;6.53;5.00;;;;;;;;;;5031190;28;20396;-92
2021/03/09 00:41:54;;;;;;;6.20;4.70;;;;;;;;;;5031339;28;20454;-90
2021/03/09 00:44:20;;;;;;;5.85;4.40;;;;;;;;;;5031927;28;20381;-90
2021/03/09 00:46:46;;;;;;;5.78;4.25;;;;;;;;;;5032121;28;20747;-90
2021/03/09 00:49:12;;;;;;;7.28;5.07;;;;;;;;;;5030524;28;20401;-90
2021/03/09 00:51:38;;;;;;;5.53;4.38;;;;;;;;;;5031712;28;20385;-87
2021/03/09 00:54:04;;;;;;;6.43;4.25;;;;;;;;;;5031441;28;20392;-88
2021/03/09 00:56:30;;;;;;;5.57;4.70;;;;;;;;;;5030936;28;20374;-86
2021/03/09 00:58:56;;;;;;;6.55;4.60;;;;;;;;;;5031266;28;20405;-87
2021/03/09 01:01:22;;;;;;;6.97;4.72;;;;;;;;;;5032395;28;20381;-87
2021/03/09 01:03:48;;;;;;;4.80;4.30;;;;;;;;;;5032049;28;20380;-85
2021/03/09 01:06:13;;;;;;;5.45;4.25;;;;;;;;;;5031944;28;20396;-86
2021/03/09 01:08:39;;;;;;;5.45;4.78;;;;;;;;;;5032336;28;20429;-83
2021/03/09 01:11:05;;;;;;;7.18;5.00;;;;;;;;;;5030917;28;20472;-86
2021/03/09 01:13:31;;;;;;;5.50;4.30;;;;;;;;;;5031505;28;20791;-88
2021/03/09 01:16:00;;;;;;;5.97;4.70;;;;;;;;;;5035102;28;20382;-85
2021/03/09 01:18:26;;;;;;;7.70;4.93;;;;;;;;;;5031738;28;20472;-91
2021/03/09 01:20:52;;;;;;;6.73;4.30;;;;;;;;;;5033900;28;20465;-88
2021/03/09 01:23:18;;;;;;;5.88;4.85;;;;;;;;;;5034796;28;20385;-90
2021/03/09 01:25:44;;;;;;;5.57;4.60;;;;;;;;;;5033888;28;20557;-91
2021/03/09 01:28:11;;;;;;;5.40;4.53;;;;;;;;;;5033703;28;20416;-93
2021/03/09 01:30:37;;;;;;;5.43;4.50;;;;;;;;;;5032106;28;20435;-90
2021/03/09 01:33:04;;;;;;;5.47;4.78;;;;;;;;;;5030110;28;20381;-84
2021/03/09 01:35:30;;;;;;;6.63;4.65;;;;;;;;;;5030158;28;20385;-89
2021/03/09 01:37:56;;;;;;;6.70;4.50;;;;;;;;;;5029897;28;20512;-85
2021/03/09 01:40:23;;;;;;;7.53;4.85;;;;;;;;;;5029697;28;20388;-89
2021/03/09 01:42:49;;;;;;;6.15;4.55;;;;;;;;;;5030736;28;20381;-90
2021/03/09 01:45:15;;;;;;;8.03;5.07;;;;;;;;;;5031744;28;20381;-87
2021/03/09 01:47:45;;;;;;;5.57;4.20;;;;;;;;;;5032148;28;20895;-90
2021/03/09 01:50:13;;;;;;;7.00;4.63;;;;;;;;;;5032168;28;20735;-88
2021/03/09 01:52:41;;;;;;;6.32;4.72;;;;;;;;;;5030161;28;20472;-89
2021/03/09 01:55:08;;;;;;;6.47;4.78;;;;;;;;;;5030703;28;20382;-85
2021/03/09 01:57:35;;;;;;;5.07;4.15;;;;;;;;;;5031926;28;20385;-87
2021/03/09 02:00:02;;;;;;;5.32;4.32;;;;;;;;;;5032096;28;20654;-84
2021/03/09 02:02:28;;;;;;;6.18;5.00;;;;;;;;;;5032626;28;20382;-92
2021/03/09 02:04:54;;;;;;;5.80;4.80;;;;;;;;;;5031342;28;20394;-87
2021/03/09 02:07:20;;;;;;;8.23;5.00;;;;;;;;;;5034307;28;20405;-87
2021/03/09 02:09:46;;;;;;;6.40;4.73;;;;;;;;;;5037597;28;20512;-82
2021/03/09 02:12:23;;;;;;;6.88;4.80;;;;;;;;;;5039256;28;20393;-85
2021/03/09 02:14:54;;;;;;;5.60;4.45;;;;;;;;;;5041366;28;20380;-85
2021/03/09 02:17:26;;;;;;;6.03;4.45;;;;;;;;;;5033473;28;20409;-92
2021/03/09 02:20:11;;;;;;;6.97;4.97;;;;;;;;;;5032503;28;21157;-83
2021/03/09 02:22:57;;;;;;;7.13;4.82;;;;;;;;;;5034121;28;21129;-87
2021/03/09 02:25:41;;;;;;;6.97;4.80;;;;;;;;;;5020046;28;20411;-88
2021/03/09 02:28:07;;;;;;;7.03;4.85;;;;;;;;;;5025605;28;20413;-86
2021/03/09 02:30:34;;;;;;;7.70;5.03;;;;;;;;;;5034968;28;20373;-85
2021/03/09 02:33:20;;;;;;;6.72;4.90;;;;;;;;;;5035430;28;20411;-88
2021/03/09 02:35:50;;;;;;;7.60;5.18;;;;;;;;;;5034632;28;20392;-85
2021/03/09 02:38:18;;;;;;;6.18;4.90;;;;;;;;;;5036296;28;20436;-83
2021/03/09 02:40:44;;;;;;;6.53;5.10;;;;;;;;;;5036054;28;20395;-91
2021/03/09 02:43:13;;;;;;;6.50;5.30;;;;;;;;;;5037597;28;20405;-87
2021/03/09 02:45:40;;;;;;;7.22;5.20;;;;;;;;;;5037842;28;20381;-82
2021/03/09 02:48:08;;;;;;;7.63;4.82;;;;;;;;;;5038152;28;20489;-81
2021/03/09 02:50:34;;;;;;;6.15;4.93;;;;;;;;;;5039564;28;20385;-85
2021/03/09 02:53:21;;;;;;;6.35;5.10;;;;;;;;;;5038905;28;20385;-81
2021/03/09 02:55:49;;;;;;;6.50;5.13;;;;;;;;;;5020129;28;20388;-84
2021/03/09 02:58:17;;;;;;;5.85;5.03;;;;;;;;;;5033450;28;20403;-82
2021/03/09 03:00:43;;;;;;;8.20;5.13;;;;;;;;;;5039651;28;20384;-81
2021/03/09 03:03:10;;;;;;;6.70;5.13;;;;;;;;;;5041447;28;20370;-83
2021/03/09 03:05:37;;;;;;;6.27;5.10;;;;;;;;;;5040287;28;20424;-82
2021/03/09 03:08:05;;;;;;;6.80;4.80;;;;;;;;;;5040888;28;20883;-82
2021/03/09 03:10:32;;;;;;;5.80;5.20;;;;;;;;;;5038768;28;20378;-82
2021/03/09 03:12:58;;;;;;;5.70;4.95;;;;;;;;;;5040185;28;20428;-81
2021/03/09 03:15:24;;;;;;;7.82;5.43;;;;;;;;;;5040167;28;20380;-81
2021/03/09 03:17:50;;;;;;;5.90;5.03;;;;;;;;;;5041328;28;20373;-81
2021/03/09 03:20:18;;;;;;;7.68;5.03;;;;;;;;;;5040322;28;20497;-80
2021/03/09 03:22:45;;;;;;;6.85;5.20;;;;;;;;;;5041360;28;20465;-81
2021/03/09 03:25:12;;;;;;;6.35;5.18;;;;;;;;;;5039246;28;20386;-80
2021/03/09 03:27:40;;;;;;;7.80;5.32;;;;;;;;;;5039776;28;20413;-82
2021/03/09 03:30:07;;;;;;;7.60;5.70;;;;;;;;;;5039663;28;20729;-81
2021/03/09 03:32:34;;;;;;;6.50;5.28;;;;;;;;;;5039379;28;20370;-82
2021/03/09 03:35:00;;;;;;;7.57;5.75;;;;;;;;;;5038819;28;20896;-81
2021/03/09 03:37:26;;;;;;;7.35;5.60;;;;;;;;;;5040964;28;20373;-81
2021/03/09 03:39:52;;;;;;;10.60;5.45;;;;;;;;;;5041426;28;20380;-81
2021/03/09 03:42:18;;;;;;;8.60;5.90;;;;;;;;;;5039448;28;20445;-81
2021/03/09 03:44:44;;;;;;;6.82;5.18;;;;;;;;;;5040411;28;20397;-81
2021/03/09 03:47:10;;;;;;;7.28;5.22;;;;;;;;;;5041365;28;20904;-81
2021/03/09 03:49:36;;;;;;;6.60;5.27;;;;;;;;;;5039821;28;20372;-81
2021/03/09 03:52:07;;;;;;;6.90;5.60;;;;;;;;;;5040294;28;20396;-80
2021/03/09 03:54:45;;;;;;;6.70;5.07;;;;;;;;;;5041361;28;20377;-81
2021/03/09 03:57:14;;;;;;;5.78;5.10;;;;;;;;;;5039574;28;20388;-81
2021/03/09 03:59:41;;;;;;;6.93;5.60;;;;;;;;;;5038206;28;20617;-81
2021/03/09 04:02:08;;;;;;;8.50;5.83;;;;;;;;;;5039360;28;20390;-84
2021/03/09 04:04:36;;;;;;;6.93;5.87;;;;;;;;;;5043291;28;20479;-82
2021/03/09 04:07:02;;;;;;;8.90;5.90;;;;;;;;;;5053471;28;20447;-81
2021/03/09 04:09:28;;;;;;;8.18;5.90;;;;;;;;;;5041634;28;20786;-82
2021/03/09 04:11:57;;;;;;;7.22;5.57;;;;;;;;;;5041007;28;20377;-81
2021/03/09 04:14:23;;;;;;;7.68;5.80;;;;;;;;;;5039343;28;20405;-82
2021/03/09 04:16:51;;;;;;;7.15;5.53;;;;;;;;;;5040180;28;20392;-81
2021/03/09 04:19:18;;;;;;;8.13;5.50;;;;;;;;;;5040584;28;20376;-81
2021/03/09 04:21:44;;;;;;;7.88;5.50;;;;;;;;;;5039020;28;20369;-81
2021/03/09 04:24:11;;;;;;;7.63;5.20;;;;;;;;;;5039116;28;20389;-84
2021/03/09 04:26:38;;;;;;;6.68;5.13;;;;;;;;;;5035954;28;20389;-84
2021/03/09 04:29:04;;;;;;;7.53;5.43;;;;;;;;;;5035457;28;20413;-81
2021/03/09 04:31:30;;;;;;;9.13;5.72;;;;;;;;;;5039773;28;20392;-82
2021/03/09 04:33:56;;;;;;;8.82;6.00;;;;;;;;;;5040089;28;20384;-80
2021/03/09 04:36:23;;;;;;;9.25;5.70;;;;;;;;;;5038372;28;20390;-81
2021/03/09 04:38:49;;;;;;;8.20;5.85;;;;;;;;;;5039464;28;20458;-81
2021/03/09 04:41:16;;;;;;;10.95;7.22;;;;;;;;;;5039171;28;20385;-81
2021/03/09 04:43:42;;;;;;;9.37;6.07;;;;;;;;;;5040842;28;20388;-81
2021/03/09 04:46:08;;;;;;;7.40;5.65;;;;;;;;;;5038763;28;20451;-81
2021/03/09 04:48:37;;;;;;;6.95;5.43;;;;;;;;;;5039549;28;20508;-83
2021/03/09 04:51:05;;;;;;;8.63;5.70;;;;;;;;;;5040942;28;20377;-81
2021/03/09 04:53:32;;;;;;;8.43;5.55;;;;;;;;;;5039474;28;20386;-81
2021/03/09 04:55:58;;;;;;;7.72;5.82;;;;;;;;;;5040145;28;20370;-81
2021/03/09 04:58:24;;;;;;;8.73;5.88;;;;;;;;;;5040136;28;20409;-80
2021/03/09 05:00:51;;;;;;;8.13;5.95;;;;;;;;;;5038879;28;20421;-80
2021/03/09 05:03:17;;;;;;;7.63;5.78;;;;;;;;;;5040590;28;20409;-81
2021/03/09 05:05:43;;;;;;;7.35;5.40;;;;;;;;;;5041373;28;20390;-81
2021/03/09 05:08:09;;;;;;;7.95;5.47;;;;;;;;;;5039536;28;20413;-80
2021/03/09 05:10:35;;;;;;;6.75;5.47;;;;;;;;;;5042996;28;20493;-81
2021/03/09 05:13:01;;;;;;;11.20;6.45;;;;;;;;;;5043106;28;20902;-81
2021/03/09 05:15:27;;;;;;;10.03;5.43;;;;;;;;;;5043164;28;20405;-81
2021/03/09 05:17:53;;;;;;;7.90;5.80;;;;;;;;;;5043631;28;20377;-81
2021/03/09 05:20:19;;;;;;;8.32;5.25;;;;;;;;;;5044031;28;20381;-81
2021/03/09 05:22:45;;;;;;;8.35;5.70;;;;;;;;;;5042599;28;20373;-81
2021/03/09 05:25:13;;;;;;;7.38;5.70;;;;;;;;;;5043810;28;20736;-81
2021/03/09 05:27:40;;;;;;;6.10;5.50;;;;;;;;;;5042451;28;20409;-79
2021/03/09 05:30:06;;;;;;;6.85;5.60;;;;;;;;;;5042387;28;20393;-81
2021/03/09 05:32:33;;;;;;;8.50;6.00;;;;;;;;;;5042750;28;20449;-81
2021/03/09 05:34:59;;;;;;;6.47;5.57;;;;;;;;;;5044957;28;20377;-81
2021/03/09 05:37:25;;;;;;;6.50;5.38;;;;;;;;;;5042022;28;20393;-82
2021/03/09 05:39:51;;;;;;;7.47;5.65;;;;;;;;;;5042203;28;20373;-80
2021/03/09 05:42:17;;;;;;;7.97;5.75;;;;;;;;;;5041140;28;20389;-81
2021/03/09 05:44:43;;;;;;;7.68;6.25;;;;;;;;;;5043316;28;20468;-81
2021/03/09 05:47:09;;;;;;;8.30;6.10;;;;;;;;;;5030747;28;20406;-81
2021/03/09 05:49:35;;;;;;;9.05;5.88;;;;;;;;;;5041643;28;20394;-82
2021/03/09 05:52:01;;;;;;;8.02;6.25;;;;;;;;;;5041249;28;20390;-81
2021/03/09 05:54:27;;;;;;;7.47;5.65;;;;;;;;;;5042777;28;20373;-81
2021/03/09 05:56:53;;;;;;;9.05;6.05;;;;;;;;;;5042477;28;20374;-81
2021/03/09 05:59:19;;;;;;;9.75;6.03;;;;;;;;;;5041511;28;20381;-81
2021/03/09 06:01:46;;;;;;;8.50;6.40;;;;;;;;;;5040354;28;20373;-81
2021/03/09 06:04:12;;;;;;;9.50;6.20;;;;;;;;;;5042019;28;20381;-81
2021/03/09 06:06:38;;;;;;;8.07;5.60;;;;;;;;;;5040949;28;20404;-81
2021/03/09 06:09:25;;;;;;;8.18;6.03;;;;;;;;;;5043983;28;20409;-81
2021/03/09 06:12:10;;;;;;;7.68;6.25;;;;;;;;;;5034186;28;20413;-81
2021/03/09 06:14:46;;;;;;;8.83;6.67;;;;;;;;;;5031360;28;20384;-81
2021/03/09 06:17:23;;;;;;;8.77;6.57;;;;;;;;;;5042844;28;20400;-81
2021/03/09 06:19:49;;;;;;;8.00;6.07;;;;;;;;;;5025513;28;20393;-81
2021/03/09 06:22:16;;;;;;;7.95;6.05;;;;;;;;;;5040602;28;20484;-81
2021/03/09 06:24:42;;;;;;;10.25;6.85;;;;;;;;;;5041591;28;20425;-82
2021/03/09 06:27:27;;;;;;;7.90;6.63;;;;;;;;;;5043331;28;20394;-81
2021/03/09 06:29:54;;;;;;;8.68;6.60;;;;;;;;;;5034179;28;20405;-81
2021/03/09 06:32:20;;;;;;;8.20;6.38;;;;;;;;;;5035483;28;20378;-90
2021/03/09 06:34:46;;;;;;;10.73;6.43;;;;;;;;;;5033327;28;20717;-86
2021/03/09 06:37:16;;;;;;;10.43;6.82;;;;;;;;;;5037410;28;20374;-82
2021/03/09 06:40:05;;;;;;;10.15;7.93;;;;;;;;;;5040870;28;20466;-83
2021/03/09 06:42:31;;;;;;;11.40;7.57;;;;;;;;;;5042094;28;20377;-82
2021/03/09 06:44:58;;;;;;;9.70;8.13;;;;;;;;;;5043547;28;20382;-82
2021/03/09 06:47:34;;;;;;;13.70;8.40;;;;;;;;;;5061758;28;20408;-82
2021/03/09 06:50:00;;;;;;;15.57;8.23;;;;;;;;;;5062825;28;20373;-82
2021/03/09 06:52:27;;;;;;;11.20;7.55;;;;;;;;;;5062609;28;20375;-82
2021/03/09 06:54:54;;;;;;;23.17;8.45;;;;;;;;;;5062572;28;20391;-82
2021/03/09 06:57:20;;;;;;;12.77;8.40;;;;;;;;;;5062682;28;20383;-83
2021/03/09 06:59:50;;;;;;;14.27;8.38;;;;;;;;;;5062061;28;20395;-82
2021/03/09 07:02:16;;;;;;;15.10;9.60;;;;;;;;;;5045998;28;20472;-83
2021/03/09 07:04:45;;;;;;;18.65;10.13;;;;;;;;;;5042279;28;20879;-82
2021/03/09 07:07:12;;;;;;;15.13;9.50;;;;;;;;;;5042549;28;20404;-83
2021/03/09 07:09:39;;;;;;;12.70;8.77;;;;;;;;;;5041888;28;20389;-82
2021/03/09 07:12:07;;;;;;;10.57;7.68;;;;;;;;;;5041264;28;20890;-82
2021/03/09 07:14:33;;;;;;;9.05;7.38;;;;;;;;;;5041917;28;20366;-83
2021/03/09 07:17:02;;;;;;;12.75;9.15;;;;;;;;;;5041177;28;20481;-83
2021/03/09 07:19:35;;;;;;;13.02;9.30;;;;;;;;;;5040762;28;20894;-82
2021/03/09 07:22:02;;;;;;;13.57;9.07;;;;;;;;;;5040909;28;20374;-82
2021/03/09 07:24:28;;;;;;;13.00;8.13;;;;;;;;;;5039455;28;20381;-82
2021/03/09 07:26:59;;;;;;;17.83;8.65;;;;;;;;;;5041350;28;20377;-87
2021/03/09 07:29:28;;;;;;;14.32;8.75;;;;;;;;;;5030630;28;20387;-87
2021/03/09 07:31:56;;;;;;;11.52;8.60;;;;;;;;;;5028502;28;21045;-92
2021/03/09 07:34:23;;;;;;;15.27;8.65;;;;;;;;;;5031454;28;20373;-82
2021/03/09 07:36:49;;;;;;;14.05;8.73;;;;;;;;;;5035146;28;20416;-87
2021/03/09 07:39:18;;;;;;;11.68;8.15;;;;;;;;;;5039820;28;20508;-85
2021/03/09 07:41:44;;;;;;;11.10;7.93;;;;;;;;;;5040123;28;20385;-82
2021/03/09 07:44:10;;;;;;;13.32;8.25;;;;;;;;;;5039692;28;20385;-82
2021/03/09 07:46:37;;;;;;;22.98;8.88;;;;;;;;;;5038282;28;20859;-87
2021/03/09 07:49:03;;;;;;;17.13;8.70;;;;;;;;;;5031360;28;20401;-84
2021/03/09 07:51:29;;;;;;;13.27;8.88;;;;;;;;;;5028987;28;20748;-88
2021/03/09 07:54:14;;;;;;;16.25;9.07;;;;;;;;;;5028940;28;20394;-88
2021/03/09 07:57:00;;;;;;;13.88;8.85;;;;;;;;;;5030156;28;20392;-85
2021/03/09 07:59:26;;;;;;;13.02;8.65;;;;;;;;;;5028698;28;20396;-85
2021/03/09 08:01:52;;;;;;;14.80;8.65;;;;;;;;;;5029188;28;20393;-83
2021/03/09 08:04:17;;;;;;;13.15;8.55;;;;;;;;;;5027745;28;20794;-88
2021/03/09 08:06:44;;;;;;;11.85;8.40;;;;;;;;;;5027919;28;20425;-86
2021/03/09 08:09:29;;;;;;;15.40;8.70;;;;;;;;;;5026901;28;20995;-84
2021/03/09 08:11:55;;;;;;;13.13;9.23;;;;;;;;;;5027906;28;20884;-84
2021/03/09 08:14:21;;;;;;;13.88;8.43;;;;;;;;;;5027061;28;20430;-82
2021/03/09 08:16:49;;;;;;;13.45;8.25;;;;;;;;;;5031745;28;20392;-85
2021/03/09 08:19:24;;;;;;;12.88;8.43;;;;;;;;;;5027569;28;20381;-83
2021/03/09 08:21:52;;;;;;;15.45;9.00;;;;;;;;;;5028210;28;20385;-87
2021/03/09 08:24:38;;;;;;;12.27;8.50;;;;;;;;;;5033037;28;20378;-86
2021/03/09 08:27:04;;;;;;;12.35;8.30;;;;;;;;;;5030779;28;20389;-82
2021/03/09 08:29:30;;;;;;;12.20;7.97;;;;;;;;;;5030270;28;21167;-81
2021/03/09 08:32:15;;;;;;;13.17;8.70;;;;;;;;;;5030212;28;20457;-90
2021/03/09 08:34:41;;;;;;;14.45;9.07;;;;;;;;;;5032158;28;20385;-85
2021/03/09 08:37:27;;;;;;;12.05;8.63;;;;;;;;;;5029870;28;20373;-85
2021/03/09 08:40:08;;;;;;;14.07;8.40;;;;;;;;;;5025837;28;20389;-87
2021/03/09 08:42:53;;;;;;;13.23;8.73;;;;;;;;;;5027063;28;20480;-91
2021/03/09 08:45:31;;;;;;;13.07;8.17;;;;;;;;;;5028388;28;20479;-83
2021/03/09 08:47:57;;;;;;;15.45;8.55;;;;;;;;;;5030810;28;21043;-91
2021/03/09 08:50:40;;;;;;;13.87;8.70;;;;;;;;;;5031272;28;20466;-84
2021/03/09 08:53:06;;;;;;;13.65;7.93;;;;;;;;;;5033471;28;20442;-85
2021/03/09 08:55:32;;;;;;;13.20;8.00;;;;;;;;;;5032244;28;20396;-84
2021/03/09 08:58:05;;;;;;;14.07;8.68;;;;;;;;;;5033802;28;20468;-87
2021/03/09 09:00:31;;;;;;;11.70;8.47;;;;;;;;;;5031651;28;20727;-89
2021/03/09 09:02:57;;;;;;;10.65;7.55;;;;;;;;;;5032832;28;20385;-86
2021/03/09 09:05:28;;;;;;;11.23;7.55;;;;;;;;;;5035057;28;20461;-85
2021/03/09 09:07:54;;;;;;;11.07;8.05;;;;;;;;;;5021582;28;20507;-84
2021/03/09 09:10:22;;;;;;;10.38;7.60;;;;;;;;;;5039006;28;20475;-84
2021/03/09 09:12:58;;;;;;;13.43;7.47;;;;;;;;;;5029844;28;20381;-86
2021/03/09 09:15:24;;;;;;;10.90;7.45;;;;;;;;;;5014832;28;20417;-84
2021/03/09 09:17:49;;;;;;;14.20;7.68;;;;;;;;;;5022813;28;20883;-87
2021/03/09 09:20:18;;;;;;;13.85;8.38;;;;;;;;;;5015458;28;20399;-85
2021/03/09 09:22:45;;;;;;;11.50;7.47;;;;;;;;;;5028685;28;20381;-84
2021/03/09 09:25:12;;;;;;;12.13;7.65;;;;;;;;;;5027253;28;20392;-82
2021/03/09 09:27:40;;;;;;;10.55;7.40;;;;;;;;;;5030692;28;20405;-81
2021/03/09 09:30:06;;;;;;;10.85;7.00;;;;;;;;;;5043165;28;20397;-86
2021/03/09 09:32:43;;;;;;;9.18;6.85;;;;;;;;;;5034963;28;21064;-81
2021/03/09 09:35:10;;;;;;;8.37;6.30;;;;;;;;;;5035643;28;20389;-80
2021/03/09 09:37:44;;;;;;;10.80;6.83;;;;;;;;;;5034254;28;20390;-81
2021/03/09 09:40:11;;;;;;;10.87;6.73;;;;;;;;;;5031117;28;20436;-85
2021/03/09 09:42:37;;;;;;;10.35;6.60;;;;;;;;;;5031137;28;20391;-81
2021/03/09 09:45:03;;;;;;;9.57;6.60;;;;;;;;;;5030035;28;20830;-87
2021/03/09 09:47:29;;;;;;;11.00;6.82;;;;;;;;;;5027561;28;20405;-83
2021/03/09 09:49:56;;;;;;;8.18;6.30;;;;;;;;;;5025572;28;20981;-86
2021/03/09 09:52:22;;;;;;;9.60;6.88;;;;;;;;;;5030595;28;20374;-83
2021/03/09 09:54:51;;;;;;;9.93;5.35;;;;;;;;;;5028076;28;20392;-82
2021/03/09 09:57:17;;;;;;;8.48;5.47;;;;;;;;;;5027561;28;21054;-81
2021/03/09 09:59:43;;;;;;;9.38;6.28;;;;;;;;;;5029052;28;20377;-84
2021/03/09 10:02:15;;;;;;;9.13;6.15;;;;;;;;;;5030719;28;20476;-83
2021/03/09 10:04:41;;;;;;;8.07;5.30;;;;;;;;;;5028386;28;20425;-82
2021/03/09 10:07:15;;;;;;;14.57;5.82;;;;;;;;;;5024833;28;20504;-87
2021/03/09 10:09:41;;;;;;;9.65;5.22;;;;;;;;;;5031039;28;20388;-88
2021/03/09 10:12:07;;;;;;;9.60;5.72;;;;;;;;;;5029055;28;20420;-85
2021/03/09 10:14:36;;;;;;;9.17;4.73;;;;;;;;;;5029437;28;20486;-81
2021/03/09 10:17:03;;;;;;;7.68;4.90;;;;;;;;;;5030768;28;20398;-83
2021/03/09 10:19:37;;;;;;;6.57;3.63;;;;;;;;;;5029633;28;20439;-84
2021/03/09 10:22:03;;;;;;;6.37;4.70;;;;;;;;;;5030246;28;20386;-82
2021/03/09 10:24:31;;;;;;;7.72;5.05;;;;;;;;;;5030181;28;20451;-86
2021/03/09 10:26:58;;;;;;;5.50;4.28;;;;;;;;;;5028065;28;20399;-82
2021/03/09 10:29:25;;;;;;;6.18;4.55;;;;;;;;;;5029388;28;20436;-89
2021/03/09 10:31:52;;;;;;;7.40;4.30;;;;;;;;;;5030582;28;20488;-84
2021/03/09 10:34:19;;;;;;;6.60;4.22;;;;;;;;;;5029490;28;20381;-85
2021/03/09 10:36:55;;;;;;;6.65;3.83;;;;;;;;;;5029237;28;20392;-84
2021/03/09 10:39:23;;;;;;;9.43;4.10;;;;;;;;;;5010694;28;20872;-84
2021/03/09 10:41:49;;;;;;;5.50;3.90;;;;;;;;;;5026467;28;20485;-81
2021/03/09 10:44:26;;;;;;;6.72;3.55;;;;;;;;;;5035904;28;20374;-85
2021/03/09 10:46:52;;;;;;;6.65;4.00;;;;;;;;;;5030717;28;20405;-84
2021/03/09 10:49:17;;;;;;;5.13;3.70;;;;;;;;;;5029042;28;20420;-86
2021/03/09 10:51:43;;;;;;;7.70;4.18;;;;;;;;;;5030319;28;20463;-86
2021/03/09 10:54:09;;;;;;;5.93;3.90;;;;;;;;;;5028243;28;20989;-84
2021/03/09 10:56:36;;;;;;;6.80;3.75;;;;;;;;;;5029988;28;20389;-82
2021/03/09 10:59:02;;;;;;;4.75;3.40;;;;;;;;;;5029917;28;20480;-85
2021/03/09 11:01:30;;;;;;;6.45;4.22;;;;;;;;;;5027023;28;20527;-85
2021/03/09 11:03:56;;;;;;;4.63;2.90;;;;;;;;;;5025813;28;21176;-83
2021/03/09 11:06:22;;;;;;;5.57;2.90;;;;;;;;;;5019756;28;20479;-86
2021/03/09 11:08:48;;;;;;;5.17;3.70;;;;;;;;;;5022837;28;20500;-82
2021/03/09 11:11:14;;;;;;;5.27;3.60;;;;;;;;;;5021553;28;20382;-83
2021/03/09 11:13:40;;;;;;;4.70;3.53;;;;;;;;;;5025869;28;20396;-81
2021/03/09 11:16:06;;;;;;;6.00;3.58;;;;;;;;;;5022460;28;20401;-80
2021/03/09 11:18:32;;;;;;;4.38;3.17;;;;;;;;;;5014681;28;20484;-84
2021/03/09 11:20:58;;;;;;;4.97;3.58;;;;;;;;;;5026287;28;20514;-83
2021/03/09 11:23:24;;;;;;;7.45;3.90;;;;;;;;;;5024730;28;20388;-82
2021/03/09 11:25:51;;;;;;;5.22;3.28;;;;;;;;;;5021297;28;20381;-81
2021/03/09 11:28:17;;;;;;;5.45;3.33;;;;;;;;;;5024842;28;20445;-82
2021/03/09 11:30:45;;;;;;;5.60;3.42;;;;;;;;;;5024677;28;20400;-85
2021/03/09 11:33:11;;;;;;;5.47;3.60;;;;;;;;;;5025509;28;20605;-86
2021/03/09 11:35:37;;;;;;;7.25;3.80;;;;;;;;;;5023878;28;20480;-85
2021/03/09 11:38:03;;;;;;;5.30;3.50;;;;;;;;;;5026069;28;20927;-84
2021/03/09 11:40:29;;;;;;;6.93;3.58;;;;;;;;;;5024361;28;20401;-84
2021/03/09 11:42:55;;;;;;;6.13;2.97;;;;;;;;;;5027125;28;20382;-83
2021/03/09 11:45:21;;;;;;;3.55;2.40;;;;;;;;;;5026257;28;20397;-86
2021/03/09 11:47:47;;;;;;;4.80;2.50;;;;;;;;;;5025690;28;20421;-88
2021/03/09 11:50:14;;;;;;;25.77;4.43;;;;;;;;;;5026863;28;20464;-82
2021/03/09 11:52:40;;;;;;;4.40;3.08;;;;;;;;;;5027860;28;21005;-84
2021/03/09 11:55:07;;;;;;;4.97;3.00;;;;;;;;;;5025713;28;20382;-90
2021/03/09 11:57:33;;;;;;;4.50;3.00;;;;;;;;;;5027171;28;20754;-86
2021/03/09 11:59:59;;;;;;;4.67;2.87;;;;;;;;;;5024463;28;20460;-85
2021/03/09 12:02:26;;;;;;;4.25;2.95;;;;;;;;;;5027842;28;20925;-88
2021/03/09 12:04:52;;;;;;;4.45;3.03;;;;;;;;;;5026373;28;20413;-83
2021/03/09 12:07:19;;;;;;;5.35;2.95;;;;;;;;;;5026030;28;20813;-88
2021/03/09 12:09:45;;;;;;;4.68;2.85;;;;;;;;;;5031525;28;20536;-84
2021/03/09 12:12:11;;;;;;;3.95;3.00;;;;;;;;;;5026218;28;20373;-80
2021/03/09 12:14:37;;;;;;;4.18;2.80;;;;;;;;;;5025669;28;20965;-82
2021/03/09 12:17:06;;;;;;;7.20;3.40;;;;;;;;;;5026508;28;20385;-86
2021/03/09 12:19:32;;;;;;;4.50;2.90;;;;;;;;;;5028699;28;20479;-89
2021/03/09 12:21:58;;;;;;;4.72;3.40;;;;;;;;;;5023214;28;20906;-83
2021/03/09 12:24:24;;;;;;;9.95;5.53;;;;;;;;;;5025593;28;20421;-87
2021/03/09 12:26:51;;;;;;;5.00;3.38;;;;;;;;;;5027525;28;20431;-85
2021/03/09 12:29:18;;;;;;;6.32;4.20;;;;;;;;;;5027935;28;20880;-82
2021/03/09 12:31:44;;;;;;;6.10;3.30;;;;;;;;;;5029587;28;20378;-82
2021/03/09 12:34:10;;;;;;;6.05;3.50;;;;;;;;;;5030665;28;20404;-82
2021/03/09 12:36:36;;;;;;;5.25;3.42;;;;;;;;;;5026881;28;20412;-80
2021/03/09 12:39:03;;;;;;;4.40;3.33;;;;;;;;;;5030637;28;20426;-81
2021/03/09 12:41:29;;;;;;;5.15;3.28;;;;;;;;;;5028519;28;20404;-87
2021/03/09 12:43:55;;;;;;;6.97;3.38;;;;;;;;;;5031428;28;20369;-83
2021/03/09 12:46:21;;;;;;;12.30;3.95;;;;;;;;;;5030636;28;20378;-83
2021/03/09 12:48:47;;;;;;;8.67;3.60;;;;;;;;;;5030930;28;20633;-85
2021/03/09 12:51:13;;;;;;;13.15;3.65;;;;;;;;;;5031609;28;20381;-85
2021/03/09 12:53:39;;;;;;;5.60;3.53;;;;;;;;;;5032144;28;20438;-82
2021/03/09 12:56:05;;;;;;;4.97;3.47;;;;;;;;;;5031761;28;21029;-83
2021/03/09 12:58:34;;;;;;;4.53;3.30;;;;;;;;;;5030485;28;20385;-85
2021/03/09 13:01:00;;;;;;;5.93;3.65;;;;;;;;;;5030777;28;21246;-85
2021/03/09 13:03:26;;;;;;;5.85;3.20;;;;;;;;;;5032366;28;20543;-82
2021/03/09 13:05:52;;;;;;;5.97;3.70;;;;;;;;;;5029828;28;20397;-85
2021/03/09 13:08:18;;;;;;;5.20;3.20;;;;;;;;;;5029481;28;20417;-82
2021/03/09 13:10:44;;;;;;;6.13;3.00;;;;;;;;;;5040152;28;20396;-87
2021/03/09 13:13:10;;;;;;;4.03;3.15;;;;;;;;;;5030755;28;20484;-81
2021/03/09 13:15:36;;;;;;;3.72;2.90;;;;;;;;;;5030095;28;20906;-85
2021/03/09 13:18:02;;;;;;;5.07;3.20;;;;;;;;;;5030433;28;20392;-84
2021/03/09 13:20:28;;;;;;;4.32;3.35;;;;;;;;;;5031774;28;20381;-83
2021/03/09 13:22:54;;;;;;;7.72;3.80;;;;;;;;;;5029733;28;20447;-84
2021/03/09 13:25:20;;;;;;;5.90;3.55;;;;;;;;;;5027783;28;20469;-83
2021/03/09 13:27:46;;;;;;;4.55;3.28;;;;;;;;;;5028997;28;20432;-85
2021/03/09 13:30:14;;;;;;;4.47;3.25;;;;;;;;;;5027857;28;20478;-85
2021/03/09 13:32:41;;;;;;;6.63;3.00;;;;;;;;;;5029551;28;20362;-82
2021/03/09 13:35:07;;;;;;;6.38;3.10;;;;;;;;;;5029019;28;20941;-84
2021/03/09 13:37:33;;;;;;;5.63;3.22;;;;;;;;;;5028952;28;20381;-85
2021/03/09 13:40:00;;;;;;;4.25;3.22;;;;;;;;;;5029181;28;20473;-83
2021/03/09 13:42:26;;;;;;;6.57;3.58;;;;;;;;;;5029387;28;20393;-83
2021/03/09 13:44:53;;;;;;;5.60;3.28;;;;;;;;;;5029193;28;20392;-85
2021/03/09 13:47:19;;;;;;;6.28;3.45;;;;;;;;;;5027887;28;20736;-84
2021/03/09 13:49:45;;;;;;;4.25;3.20;;;;;;;;;;5027856;28;20374;-83
2021/03/09 13:52:12;;;;;;;9.10;3.55;;;;;;;;;;5028574;28;20742;-83
2021/03/09 13:54:38;;;;;;;5.53;3.17;;;;;;;;;;5025242;28;20940;-85
2021/03/09 13:57:04;;;;;;;4.22;2.97;;;;;;;;;;5023239;28;20389;-84
2021/03/09 13:59:30;;;;;;;4.53;3.33;;;;;;;;;;5026312;28;20386;-83
2021/03/09 14:01:56;;;;;;;4.30;3.13;;;;;;;;;;5027492;28;20874;-84
2021/03/09 14:04:22;;;;;;;4.43;3.40;;;;;;;;;;5025572;28;20370;-81
2021/03/09 14:06:48;;;;;;;4.28;3.15;;;;;;;;;;5027803;28;20886;-86
2021/03/09 14:09:16;;;;;;;4.57;3.10;;;;;;;;;;5033280;28;20447;-80
2021/03/09 14:11:45;;;;;;;4.50;3.30;;;;;;;;;;5034057;28;20879;-81
2021/03/09 14:14:11;;;;;;;3.90;2.97;;;;;;;;;;5025318;28;20413;-82
2021/03/09 14:16:37;;;;;;;3.85;3.20;;;;;;;;;;5024878;28;20401;-82
2021/03/09 14:19:03;;;;;;;5.65;3.60;;;;;;;;;;5024454;28;20883;-83
2021/03/09 14:21:29;;;;;;;6.28;3.85;;;;;;;;;;5026840;28;20381;-87
2021/03/09 14:23:55;;;;;;;5.13;3.45;;;;;;;;;;5025781;28;20949;-87
2021/03/09 14:26:21;;;;;;;6.38;3.72;;;;;;;;;;5026242;28;20542;-87
2021/03/09 14:28:47;;;;;;;5.30;3.35;;;;;;;;;;5028286;28;20502;-80
2021/03/09 14:31:13;;;;;;;4.63;3.00;;;;;;;;;;5039043;28;20374;-85
2021/03/09 14:33:39;;;;;;;4.88;3.78;;;;;;;;;;5035335;28;20384;-82
2021/03/09 14:36:05;;;;;;;4.57;3.60;;;;;;;;;;5034738;28;21076;-84
2021/03/09 14:38:31;;;;;;;5.45;3.50;;;;;;;;;;5025649;28;20380;-84
2021/03/09 14:40:57;;;;;;;5.28;3.60;;;;;;;;;;5025733;28;20386;-85
2021/03/09 14:43:23;;;;;;;11.02;4.18;;;;;;;;;;5028709;28;20388;-88